sensor_id;sensor_type;location;lat;lon;timestamp;temperature;humidity
3416;DHT22;1721;51.238;9.562;2023-02-22T00:00:55;10.80;99.90
3416;DHT22;1721;51.238;9.562;2023-02-22T00:03:28;11.00;99.90
3416;DHT22;1721;51.238;9.562;2023-02-22T00:06:01;11.30;99.90
3416;DHT22;1721;51.238;9.562;2023-02-22T00:08:31;11.30;99.90
3416;DHT22;1721;51.238;9.562;2023-02-22T00:11:06;11.20;99.90
3416;DHT22;1721;51.238;9.562;2023-02-22T00:13:33;11.10;99.90
3416;DHT22;1721;51.238;9.562;2023-02-22T00:15:59;11.20;99.90
3416;DHT22;1721;51.238;9.562;2023-02-22T00:18:25;11.00;99.90
3416;DHT22;1721;51.238;9.562;2023-02-22T00:20:58;11.00;99.90
3416;DHT22;1721;51.238;9.562;2023-02-22T00:23:25;11.10;99.90
3416;DHT22;1721;51.238;9.562;2023-02-22T00:25:53;11.30;99.90
3416;DHT22;1721;51.238;9.562;2023-02-22T00:28:20;11.30;99.90
3416;DHT22;1721;51.238;9.562;2023-02-22T00:30:45;11.20;99.90
3416;DHT22;1721;51.238;9.562;2023-02-22T00:33:13;11.20;99.90
3416;DHT22;1721;51.238;9.562;2023-02-22T00:35:39;11.00;99.90
3416;DHT22;1721;51.238;9.562;2023-02-22T00:38:06;11.10;99.90
3416;DHT22;1721;51.238;9.562;2023-02-22T00:40:33;11.10;99.90
3416;DHT22;1721;51.238;9.562;2023-02-22T00:43:01;11.20;99.90
3416;DHT22;1721;51.238;9.562;2023-02-22T00:45:30;11.30;99.90
3416;DHT22;1721;51.238;9.562;2023-02-22T00:47:56;10.60;99.90
3416;DHT22;1721;51.238;9.562;2023-02-22T00:50:24;10.50;99.90
3416;DHT22;1721;51.238;9.562;2023-02-22T00:52:50;10.40;99.90
3416;DHT22;1721;51.238;9.562;2023-02-22T00:55:24;10.60;99.90
3416;DHT22;1721;51.238;9.562;2023-02-22T00:57:51;10.20;99.90
3416;DHT22;1721;51.238;9.562;2023-02-22T01:00:20;10.30;99.90
3416;DHT22;1721;51.238;9.562;2023-02-22T01:02:46;10.60;99.90
3416;DHT22;1721;51.238;9.562;2023-02-22T01:05:15;10.90;99.90
3416;DHT22;1721;51.238;9.562;2023-02-22T01:07:42;10.70;99.90
3416;DHT22;1721;51.238;9.562;2023-02-22T01:10:10;10.80;99.90
3416;DHT22;1721;51.238;9.562;2023-02-22T01:12:36;10.70;99.90
3416;DHT22;1721;51.238;9.562;2023-02-22T01:15:03;10.70;99.90
3416;DHT22;1721;51.238;9.562;2023-02-22T01:17:29;10.50;99.90
3416;DHT22;1721;51.238;9.562;2023-02-22T01:19:55;10.30;99.90
3416;DHT22;1721;51.238;9.562;2023-02-22T01:22:22;10.60;99.90
3416;DHT22;1721;51.238;9.562;2023-02-22T01:24:49;10.60;99.90
3416;DHT22;1721;51.238;9.562;2023-02-22T01:27:15;10.90;99.90
3416;DHT22;1721;51.238;9.562;2023-02-22T01:29:41;11.10;99.90
3416;DHT22;1721;51.238;9.562;2023-02-22T01:32:07;10.90;99.90
3416;DHT22;1721;51.238;9.562;2023-02-22T01:34:33;10.90;99.90
3416;DHT22;1721;51.238;9.562;2023-02-22T01:36:59;10.90;99.90
3416;DHT22;1721;51.238;9.562;2023-02-22T01:39:26;10.80;99.90
3416;DHT22;1721;51.238;9.562;2023-02-22T01:41:52;10.70;99.90
3416;DHT22;1721;51.238;9.562;2023-02-22T01:44:36;10.90;99.90
3416;DHT22;1721;51.238;9.562;2023-02-22T01:47:04;11.10;99.90
3416;DHT22;1721;51.238;9.562;2023-02-22T01:49:40;11.10;99.90
3416;DHT22;1721;51.238;9.562;2023-02-22T01:52:09;11.10;99.90
3416;DHT22;1721;51.238;9.562;2023-02-22T01:54:42;11.30;99.90
3416;DHT22;1721;51.238;9.562;2023-02-22T01:57:21;11.10;99.90
3416;DHT22;1721;51.238;9.562;2023-02-22T01:59:53;10.70;99.90
3416;DHT22;1721;51.238;9.562;2023-02-22T02:02:20;10.80;99.90
3416;DHT22;1721;51.238;9.562;2023-02-22T02:04:46;11.10;99.90
3416;DHT22;1721;51.238;9.562;2023-02-22T02:07:14;11.00;99.90
3416;DHT22;1721;51.238;9.562;2023-02-22T02:09:58;11.20;99.90
3416;DHT22;1721;51.238;9.562;2023-02-22T02:12:25;11.40;99.90
3416;DHT22;1721;51.238;9.562;2023-02-22T02:14:52;11.50;99.90
3416;DHT22;1721;51.238;9.562;2023-02-22T02:17:19;11.20;99.90
3416;DHT22;1721;51.238;9.562;2023-02-22T02:34:02;10.80;99.90
3416;DHT22;1721;51.238;9.562;2023-02-22T02:36:50;11.10;99.90
3416;DHT22;1721;51.238;9.562;2023-02-22T02:39:29;11.00;99.90
3416;DHT22;1721;51.238;9.562;2023-02-22T02:41:56;10.90;99.90
3416;DHT22;1721;51.238;9.562;2023-02-22T02:44:30;11.10;99.90
3416;DHT22;1721;51.238;9.562;2023-02-22T02:50:23;11.50;99.90
3416;DHT22;1721;51.238;9.562;2023-02-22T02:52:24;11.70;99.90
3416;DHT22;1721;51.238;9.562;2023-02-22T02:54:52;11.70;99.90
3416;DHT22;1721;51.238;9.562;2023-02-22T02:57:18;11.60;99.90
3416;DHT22;1721;51.238;9.562;2023-02-22T02:59:44;11.70;99.90
3416;DHT22;1721;51.238;9.562;2023-02-22T03:11:38;11.70;99.90
3416;DHT22;1721;51.238;9.562;2023-02-22T03:16:49;11.60;99.90
3416;DHT22;1721;51.238;9.562;2023-02-22T03:24:39;11.60;99.90
3416;DHT22;1721;51.238;9.562;2023-02-22T03:27:13;11.70;99.90
3416;DHT22;1721;51.238;9.562;2023-02-22T03:29:42;11.80;99.80
3416;DHT22;1721;51.238;9.562;2023-02-22T03:32:13;11.80;99.60
3416;DHT22;1721;51.238;9.562;2023-02-22T03:34:42;11.80;99.40
3416;DHT22;1721;51.238;9.562;2023-02-22T03:37:15;11.80;99.30
3416;DHT22;1721;51.238;9.562;2023-02-22T03:39:43;11.70;99.60
3416;DHT22;1721;51.238;9.562;2023-02-22T03:42:16;11.60;99.40
3416;DHT22;1721;51.238;9.562;2023-02-22T03:44:44;11.50;99.40
3416;DHT22;1721;51.238;9.562;2023-02-22T03:47:16;11.60;99.50
3416;DHT22;1721;51.238;9.562;2023-02-22T03:52:18;11.70;99.10
3416;DHT22;1721;51.238;9.562;2023-02-22T03:54:48;11.60;99.20
3416;DHT22;1721;51.238;9.562;2023-02-22T03:57:36;11.60;99.20
3416;DHT22;1721;51.238;9.562;2023-02-22T04:00:06;11.60;99.40
3416;DHT22;1721;51.238;9.562;2023-02-22T04:02:33;11.60;99.10
3416;DHT22;1721;51.238;9.562;2023-02-22T04:04:59;11.60;99.10
3416;DHT22;1721;51.238;9.562;2023-02-22T04:07:25;11.60;99.20
3416;DHT22;1721;51.238;9.562;2023-02-22T04:09:50;11.50;99.50
3416;DHT22;1721;51.238;9.562;2023-02-22T04:12:16;11.30;99.90
3416;DHT22;1721;51.238;9.562;2023-02-22T04:14:42;11.20;99.90
3416;DHT22;1721;51.238;9.562;2023-02-22T04:17:07;10.90;99.90
3416;DHT22;1721;51.238;9.562;2023-02-22T04:19:34;10.90;99.90
3416;DHT22;1721;51.238;9.562;2023-02-22T04:21:59;10.60;99.90
3416;DHT22;1721;51.238;9.562;2023-02-22T04:24:25;10.70;99.90
3416;DHT22;1721;51.238;9.562;2023-02-22T04:26:50;11.00;99.90
3416;DHT22;1721;51.238;9.562;2023-02-22T04:29:16;11.10;99.90
3416;DHT22;1721;51.238;9.562;2023-02-22T04:31:41;11.30;99.90
3416;DHT22;1721;51.238;9.562;2023-02-22T04:34:07;11.40;99.90
3416;DHT22;1721;51.238;9.562;2023-02-22T04:36:32;11.50;99.90
3416;DHT22;1721;51.238;9.562;2023-02-22T04:38:58;11.60;99.90
3416;DHT22;1721;51.238;9.562;2023-02-22T04:41:24;11.60;99.90
3416;DHT22;1721;51.238;9.562;2023-02-22T04:43:50;11.60;99.80
3416;DHT22;1721;51.238;9.562;2023-02-22T04:46:16;11.70;99.70
3416;DHT22;1721;51.238;9.562;2023-02-22T04:48:41;11.60;99.50
3416;DHT22;1721;51.238;9.562;2023-02-22T04:51:07;11.60;99.50
3416;DHT22;1721;51.238;9.562;2023-02-22T04:53:33;11.50;99.40
3416;DHT22;1721;51.238;9.562;2023-02-22T04:55:59;11.50;99.40
3416;DHT22;1721;51.238;9.562;2023-02-22T04:58:24;11.40;99.30
3416;DHT22;1721;51.238;9.562;2023-02-22T05:00:50;11.40;99.30
3416;DHT22;1721;51.238;9.562;2023-02-22T05:03:16;11.40;99.40
3416;DHT22;1721;51.238;9.562;2023-02-22T05:05:42;11.30;99.60
3416;DHT22;1721;51.238;9.562;2023-02-22T05:08:08;11.30;99.50
3416;DHT22;1721;51.238;9.562;2023-02-22T05:10:33;11.30;99.60
3416;DHT22;1721;51.238;9.562;2023-02-22T05:12:59;11.40;99.60
3416;DHT22;1721;51.238;9.562;2023-02-22T05:15:24;11.40;99.40
3416;DHT22;1721;51.238;9.562;2023-02-22T05:17:51;11.40;99.40
3416;DHT22;1721;51.238;9.562;2023-02-22T05:20:25;11.40;99.30
3416;DHT22;1721;51.238;9.562;2023-02-22T05:22:54;11.30;99.20
3416;DHT22;1721;51.238;9.562;2023-02-22T05:25:20;11.30;99.10
3416;DHT22;1721;51.238;9.562;2023-02-22T05:27:54;11.30;99.20
3416;DHT22;1721;51.238;9.562;2023-02-22T05:30:22;11.30;99.20
3416;DHT22;1721;51.238;9.562;2023-02-22T05:32:49;11.20;99.20
3416;DHT22;1721;51.238;9.562;2023-02-22T05:35:15;11.20;99.30
3416;DHT22;1721;51.238;9.562;2023-02-22T05:37:40;11.20;99.30
3416;DHT22;1721;51.238;9.562;2023-02-22T05:40:06;11.20;99.20
3416;DHT22;1721;51.238;9.562;2023-02-22T05:42:32;11.20;99.10
3416;DHT22;1721;51.238;9.562;2023-02-22T05:44:58;11.20;99.10
3416;DHT22;1721;51.238;9.562;2023-02-22T05:47:24;11.20;99.10
3416;DHT22;1721;51.238;9.562;2023-02-22T05:49:50;11.10;99.40
3416;DHT22;1721;51.238;9.562;2023-02-22T05:52:16;11.00;99.60
3416;DHT22;1721;51.238;9.562;2023-02-22T05:54:41;11.10;99.50
3416;DHT22;1721;51.238;9.562;2023-02-22T05:57:07;11.20;99.40
3416;DHT22;1721;51.238;9.562;2023-02-22T05:59:32;11.20;99.10
3416;DHT22;1721;51.238;9.562;2023-02-22T06:01:58;11.10;99.20
3416;DHT22;1721;51.238;9.562;2023-02-22T06:04:23;11.20;99.20
3416;DHT22;1721;51.238;9.562;2023-02-22T06:06:49;11.20;99.10
3416;DHT22;1721;51.238;9.562;2023-02-22T06:09:14;11.20;99.00
3416;DHT22;1721;51.238;9.562;2023-02-22T06:11:40;11.20;98.90
3416;DHT22;1721;51.238;9.562;2023-02-22T06:14:06;11.10;98.80
3416;DHT22;1721;51.238;9.562;2023-02-22T06:16:32;11.10;98.70
3416;DHT22;1721;51.238;9.562;2023-02-22T06:18:58;11.10;98.60
3416;DHT22;1721;51.238;9.562;2023-02-22T06:21:26;11.00;98.50
3416;DHT22;1721;51.238;9.562;2023-02-22T06:23:51;10.70;99.10
3416;DHT22;1721;51.238;9.562;2023-02-22T06:26:18;10.70;99.20
3416;DHT22;1721;51.238;9.562;2023-02-22T06:28:45;10.70;99.10
3416;DHT22;1721;51.238;9.562;2023-02-22T06:31:11;10.60;99.30
3416;DHT22;1721;51.238;9.562;2023-02-22T06:33:36;10.60;99.40
3416;DHT22;1721;51.238;9.562;2023-02-22T06:36:02;10.70;99.30
3416;DHT22;1721;51.238;9.562;2023-02-22T06:38:28;10.40;99.70
3416;DHT22;1721;51.238;9.562;2023-02-22T06:40:54;10.10;99.90
3416;DHT22;1721;51.238;9.562;2023-02-22T06:43:20;10.20;99.90
3416;DHT22;1721;51.238;9.562;2023-02-22T06:45:46;10.50;99.90
3416;DHT22;1721;51.238;9.562;2023-02-22T06:48:13;10.60;99.90
3416;DHT22;1721;51.238;9.562;2023-02-22T06:50:38;10.80;99.90
3416;DHT22;1721;51.238;9.562;2023-02-22T06:53:04;10.80;99.80
3416;DHT22;1721;51.238;9.562;2023-02-22T06:55:31;10.90;99.70
3416;DHT22;1721;51.238;9.562;2023-02-22T06:57:58;11.00;99.40
3416;DHT22;1721;51.238;9.562;2023-02-22T07:00:25;11.10;99.40
3416;DHT22;1721;51.238;9.562;2023-02-22T07:02:52;10.70;99.20
3416;DHT22;1721;51.238;9.562;2023-02-22T07:05:20;10.70;99.90
3416;DHT22;1721;51.238;9.562;2023-02-22T07:07:48;10.70;99.90
3416;DHT22;1721;51.238;9.562;2023-02-22T07:10:23;10.90;99.70
3416;DHT22;1721;51.238;9.562;2023-02-22T07:12:49;11.00;99.50
3416;DHT22;1721;51.238;9.562;2023-02-22T07:15:17;11.10;99.30
3416;DHT22;1721;51.238;9.562;2023-02-22T07:17:43;11.20;99.10
3416;DHT22;1721;51.238;9.562;2023-02-22T07:20:09;11.20;99.00
3416;DHT22;1721;51.238;9.562;2023-02-22T07:22:36;11.30;99.00
3416;DHT22;1721;51.238;9.562;2023-02-22T07:25:04;11.30;99.00
3416;DHT22;1721;51.238;9.562;2023-02-22T07:27:30;11.20;99.40
3416;DHT22;1721;51.238;9.562;2023-02-22T07:29:55;11.20;99.20
3416;DHT22;1721;51.238;9.562;2023-02-22T07:32:21;11.30;99.50
3416;DHT22;1721;51.238;9.562;2023-02-22T07:34:46;11.20;99.10
3416;DHT22;1721;51.238;9.562;2023-02-22T07:37:12;11.00;99.90
3416;DHT22;1721;51.238;9.562;2023-02-22T07:39:37;11.10;99.80
3416;DHT22;1721;51.238;9.562;2023-02-22T07:42:06;11.40;99.90
3416;DHT22;1721;51.238;9.562;2023-02-22T07:44:32;11.50;99.80
3416;DHT22;1721;51.238;9.562;2023-02-22T07:46:57;11.70;99.60
3416;DHT22;1721;51.238;9.562;2023-02-22T07:49:23;11.70;99.20
3416;DHT22;1721;51.238;9.562;2023-02-22T07:51:48;11.70;99.60
3416;DHT22;1721;51.238;9.562;2023-02-22T07:54:14;11.80;99.40
3416;DHT22;1721;51.238;9.562;2023-02-22T07:56:48;11.90;99.40
3416;DHT22;1721;51.238;9.562;2023-02-22T07:59:14;11.90;99.40
3416;DHT22;1721;51.238;9.562;2023-02-22T08:01:40;11.90;99.40
3416;DHT22;1721;51.238;9.562;2023-02-22T08:04:06;12.10;99.20
3416;DHT22;1721;51.238;9.562;2023-02-22T08:06:33;12.10;98.90
3416;DHT22;1721;51.238;9.562;2023-02-22T08:08:58;12.20;99.10
3416;DHT22;1721;51.238;9.562;2023-02-22T08:11:24;12.30;98.70
3416;DHT22;1721;51.238;9.562;2023-02-22T08:13:50;11.80;99.10
3416;DHT22;1721;51.238;9.562;2023-02-22T08:16:16;11.70;99.80
3416;DHT22;1721;51.238;9.562;2023-02-22T08:18:41;11.50;99.40
3416;DHT22;1721;51.238;9.562;2023-02-22T08:21:07;11.70;99.90
3416;DHT22;1721;51.238;9.562;2023-02-22T08:23:33;11.90;99.50
3416;DHT22;1721;51.238;9.562;2023-02-22T08:26:10;11.30;99.60
3416;DHT22;1721;51.238;9.562;2023-02-22T08:28:39;11.60;99.90
3416;DHT22;1721;51.238;9.562;2023-02-22T08:31:05;11.90;99.40
3416;DHT22;1721;51.238;9.562;2023-02-22T08:33:33;11.90;99.60
3416;DHT22;1721;51.238;9.562;2023-02-22T08:35:59;11.80;99.60
3416;DHT22;1721;51.238;9.562;2023-02-22T08:38:28;12.10;99.90
3416;DHT22;1721;51.238;9.562;2023-02-22T08:40:55;12.30;99.30
3416;DHT22;1721;51.238;9.562;2023-02-22T08:43:21;12.40;99.10
3416;DHT22;1721;51.238;9.562;2023-02-22T08:45:47;12.40;99.10
3416;DHT22;1721;51.238;9.562;2023-02-22T08:48:14;12.50;99.30
3416;DHT22;1721;51.238;9.562;2023-02-22T08:50:40;12.60;98.60
3416;DHT22;1721;51.238;9.562;2023-02-22T08:53:09;12.40;99.10
3416;DHT22;1721;51.238;9.562;2023-02-22T08:55:39;12.10;99.30
3416;DHT22;1721;51.238;9.562;2023-02-22T08:58:05;12.10;99.30
3416;DHT22;1721;51.238;9.562;2023-02-22T09:00:34;11.90;98.90
3416;DHT22;1721;51.238;9.562;2023-02-22T09:03:01;11.90;99.20
3416;DHT22;1721;51.238;9.562;2023-02-22T09:05:27;11.30;99.90
3416;DHT22;1721;51.238;9.562;2023-02-22T09:07:52;11.30;99.90
3416;DHT22;1721;51.238;9.562;2023-02-22T09:10:24;11.40;99.90
3416;DHT22;1721;51.238;9.562;2023-02-22T09:12:51;11.40;99.90
3416;DHT22;1721;51.238;9.562;2023-02-22T09:15:17;11.50;99.90
3416;DHT22;1721;51.238;9.562;2023-02-22T09:17:43;11.40;99.90
3416;DHT22;1721;51.238;9.562;2023-02-22T09:20:09;11.40;99.90
3416;DHT22;1721;51.238;9.562;2023-02-22T09:22:37;11.20;99.90
3416;DHT22;1721;51.238;9.562;2023-02-22T09:25:03;11.30;99.90
3416;DHT22;1721;51.238;9.562;2023-02-22T09:27:29;11.50;99.90
3416;DHT22;1721;51.238;9.562;2023-02-22T09:29:55;11.50;99.90
3416;DHT22;1721;51.238;9.562;2023-02-22T09:32:22;11.40;99.90
3416;DHT22;1721;51.238;9.562;2023-02-22T09:34:47;11.90;99.90
3416;DHT22;1721;51.238;9.562;2023-02-22T09:37:13;12.10;99.90
3416;DHT22;1721;51.238;9.562;2023-02-22T09:39:39;12.40;99.90
3416;DHT22;1721;51.238;9.562;2023-02-22T09:42:27;12.40;99.90
3416;DHT22;1721;51.238;9.562;2023-02-22T09:45:09;12.30;99.90
3416;DHT22;1721;51.238;9.562;2023-02-22T09:47:59;12.20;99.90
3416;DHT22;1721;51.238;9.562;2023-02-22T09:50:29;12.20;99.90
3416;DHT22;1721;51.238;9.562;2023-02-22T09:53:13;12.00;99.90
3416;DHT22;1721;51.238;9.562;2023-02-22T09:55:50;12.30;99.90
3416;DHT22;1721;51.238;9.562;2023-02-22T09:58:23;12.20;99.90
3416;DHT22;1721;51.238;9.562;2023-02-22T10:00:54;12.30;99.90
3416;DHT22;1721;51.238;9.562;2023-02-22T10:03:49;12.10;99.90
3416;DHT22;1721;51.238;9.562;2023-02-22T10:06:21;12.50;99.90
3416;DHT22;1721;51.238;9.562;2023-02-22T10:08:48;12.40;99.90
3416;DHT22;1721;51.238;9.562;2023-02-22T10:17:38;12.70;99.60
3416;DHT22;1721;51.238;9.562;2023-02-22T10:20:30;12.70;99.10
3416;DHT22;1721;51.238;9.562;2023-02-22T10:23:03;13.00;99.40
3416;DHT22;1721;51.238;9.562;2023-02-22T10:25:35;12.90;99.20
3416;DHT22;1721;51.238;9.562;2023-02-22T10:30:43;12.70;98.70
3416;DHT22;1721;51.238;9.562;2023-02-22T10:33:17;12.80;98.40
3416;DHT22;1721;51.238;9.562;2023-02-22T10:35:44;12.60;98.90
3416;DHT22;1721;51.238;9.562;2023-02-22T10:43:29;12.90;98.70
3416;DHT22;1721;51.238;9.562;2023-02-22T10:45:58;12.90;98.30
3416;DHT22;1721;51.238;9.562;2023-02-22T10:48:25;13.10;98.70
3416;DHT22;1721;51.238;9.562;2023-02-22T10:51:00;13.10;98.60
3416;DHT22;1721;51.238;9.562;2023-02-22T10:53:27;13.30;99.00
3416;DHT22;1721;51.238;9.562;2023-02-22T10:56:16;13.50;98.20
3416;DHT22;1721;51.238;9.562;2023-02-22T10:58:56;13.70;98.00
3416;DHT22;1721;51.238;9.562;2023-02-22T11:06:26;13.80;97.40
3416;DHT22;1721;51.238;9.562;2023-02-22T11:09:04;14.00;97.10
3416;DHT22;1721;51.238;9.562;2023-02-22T11:11:30;13.90;96.70
3416;DHT22;1721;51.238;9.562;2023-02-22T11:13:56;13.90;96.60
3416;DHT22;1721;51.238;9.562;2023-02-22T11:21:48;13.50;96.70
3416;DHT22;1721;51.238;9.562;2023-02-22T11:24:17;13.50;96.80
3416;DHT22;1721;51.238;9.562;2023-02-22T11:26:49;13.60;96.70
3416;DHT22;1721;51.238;9.562;2023-02-22T11:29:21;13.40;96.70
3416;DHT22;1721;51.238;9.562;2023-02-22T11:31:49;13.50;97.00
3416;DHT22;1721;51.238;9.562;2023-02-22T11:34:31;13.70;96.70
3416;DHT22;1721;51.238;9.562;2023-02-22T11:37:15;13.90;96.30
3416;DHT22;1721;51.238;9.562;2023-02-22T11:39:42;13.80;96.80
3416;DHT22;1721;51.238;9.562;2023-02-22T11:42:23;13.80;96.80
3416;DHT22;1721;51.238;9.562;2023-02-22T11:45:11;13.80;96.40
3416;DHT22;1721;51.238;9.562;2023-02-22T11:50:27;14.10;96.00
3416;DHT22;1721;51.238;9.562;2023-02-22T11:58:35;14.30;96.00
3416;DHT22;1721;51.238;9.562;2023-02-22T12:06:46;14.60;95.60
3416;DHT22;1721;51.238;9.562;2023-02-22T12:09:24;14.60;95.80
3416;DHT22;1721;51.238;9.562;2023-02-22T12:15:10;14.50;96.00
3416;DHT22;1721;51.238;9.562;2023-02-22T12:17:50;14.50;95.90
3416;DHT22;1721;51.238;9.562;2023-02-22T12:20:21;14.60;96.00
3416;DHT22;1721;51.238;9.562;2023-02-22T12:23:19;14.70;96.00
3416;DHT22;1721;51.238;9.562;2023-02-22T12:25:54;14.80;95.90
3416;DHT22;1721;51.238;9.562;2023-02-22T12:31:20;15.00;95.60
3416;DHT22;1721;51.238;9.562;2023-02-22T12:36:21;14.80;95.70
3416;DHT22;1721;51.238;9.562;2023-02-22T12:38:57;14.90;95.60
3416;DHT22;1721;51.238;9.562;2023-02-22T12:41:35;14.70;95.80
3416;DHT22;1721;51.238;9.562;2023-02-22T12:44:08;14.70;95.40
3416;DHT22;1721;51.238;9.562;2023-02-22T12:46:50;14.70;95.40
3416;DHT22;1721;51.238;9.562;2023-02-22T12:59:58;15.10;94.10
3416;DHT22;1721;51.238;9.562;2023-02-22T13:02:37;15.00;94.00
3416;DHT22;1721;51.238;9.562;2023-02-22T13:05:04;15.00;94.00
3416;DHT22;1721;51.238;9.562;2023-02-22T13:16:29;15.40;94.30
3416;DHT22;1721;51.238;9.562;2023-02-22T13:19:17;15.40;94.20
3416;DHT22;1721;51.238;9.562;2023-02-22T13:24:41;15.40;93.40
3416;DHT22;1721;51.238;9.562;2023-02-22T13:29:48;15.10;92.90
3416;DHT22;1721;51.238;9.562;2023-02-22T13:53:57;15.00;92.80
3416;DHT22;1721;51.238;9.562;2023-02-22T13:56:25;14.70;93.30
3416;DHT22;1721;51.238;9.562;2023-02-22T13:58:53;14.70;93.20
3416;DHT22;1721;51.238;9.562;2023-02-22T14:01:46;14.30;93.50
3416;DHT22;1721;51.238;9.562;2023-02-22T14:04:39;14.30;93.40
3416;DHT22;1721;51.238;9.562;2023-02-22T14:07:53;14.30;93.20
3416;DHT22;1721;51.238;9.562;2023-02-22T14:09:58;14.10;93.40
3416;DHT22;1721;51.238;9.562;2023-02-22T14:17:36;14.20;92.50
3416;DHT22;1721;51.238;9.562;2023-02-22T14:20:26;14.20;92.70
3416;DHT22;1721;51.238;9.562;2023-02-22T14:23:23;14.40;93.00
3416;DHT22;1721;51.238;9.562;2023-02-22T14:25:43;14.50;92.80
3416;DHT22;1721;51.238;9.562;2023-02-22T14:28:36;14.60;93.00
3416;DHT22;1721;51.238;9.562;2023-02-22T14:31:14;14.70;92.60
3416;DHT22;1721;51.238;9.562;2023-02-22T14:36:43;14.90;92.60
3416;DHT22;1721;51.238;9.562;2023-02-22T14:39:15;15.00;92.50
3416;DHT22;1721;51.238;9.562;2023-02-22T14:41:48;15.10;92.30
3416;DHT22;1721;51.238;9.562;2023-02-22T14:44:21;15.10;91.50
3416;DHT22;1721;51.238;9.562;2023-02-22T14:46:50;15.20;91.70
3416;DHT22;1721;51.238;9.562;2023-02-22T14:49:20;15.00;91.20
3416;DHT22;1721;51.238;9.562;2023-02-22T14:51:54;15.00;91.40
3416;DHT22;1721;51.238;9.562;2023-02-22T14:54:31;14.90;91.40
3416;DHT22;1721;51.238;9.562;2023-02-22T14:57:20;14.90;91.70
3416;DHT22;1721;51.238;9.562;2023-02-22T14:59:55;14.90;91.40
3416;DHT22;1721;51.238;9.562;2023-02-22T15:02:24;14.50;91.10
3416;DHT22;1721;51.238;9.562;2023-02-22T15:04:54;14.60;92.20
3416;DHT22;1721;51.238;9.562;2023-02-22T15:07:29;14.70;92.00
3416;DHT22;1721;51.238;9.562;2023-02-22T15:10:14;14.70;92.10
3416;DHT22;1721;51.238;9.562;2023-02-22T15:12:51;14.70;92.60
3416;DHT22;1721;51.238;9.562;2023-02-22T15:15:20;14.70;92.60
3416;DHT22;1721;51.238;9.562;2023-02-22T15:17:54;14.70;92.50
3416;DHT22;1721;51.238;9.562;2023-02-22T15:20:20;14.90;92.50
3416;DHT22;1721;51.238;9.562;2023-02-22T15:22:48;15.10;92.80
3416;DHT22;1721;51.238;9.562;2023-02-22T15:25:14;15.10;92.90
3416;DHT22;1721;51.238;9.562;2023-02-22T15:27:43;15.20;93.10
3416;DHT22;1721;51.238;9.562;2023-02-22T15:30:22;15.20;93.00
3416;DHT22;1721;51.238;9.562;2023-02-22T15:32:48;15.20;93.10
3416;DHT22;1721;51.238;9.562;2023-02-22T15:35:17;15.10;93.60
3416;DHT22;1721;51.238;9.562;2023-02-22T15:37:45;15.10;93.70
3416;DHT22;1721;51.238;9.562;2023-02-22T15:40:18;15.00;93.80
3416;DHT22;1721;51.238;9.562;2023-02-22T15:42:50;15.00;93.80
3416;DHT22;1721;51.238;9.562;2023-02-22T15:45:21;14.90;93.80
3416;DHT22;1721;51.238;9.562;2023-02-22T15:47:50;14.80;94.10
3416;DHT22;1721;51.238;9.562;2023-02-22T15:55:58;14.60;94.40
3416;DHT22;1721;51.238;9.562;2023-02-22T15:58:26;14.60;94.70
3416;DHT22;1721;51.238;9.562;2023-02-22T16:01:12;14.50;94.80
3416;DHT22;1721;51.238;9.562;2023-02-22T16:03:56;14.40;94.90
3416;DHT22;1721;51.238;9.562;2023-02-22T16:06:32;14.20;95.10
3416;DHT22;1721;51.238;9.562;2023-02-22T16:09:07;14.10;95.20
3416;DHT22;1721;51.238;9.562;2023-02-22T16:11:38;13.90;95.30
3416;DHT22;1721;51.238;9.562;2023-02-22T16:14:28;13.80;95.40
3416;DHT22;1721;51.238;9.562;2023-02-22T16:17:37;13.60;95.70
3416;DHT22;1721;51.238;9.562;2023-02-22T16:22:38;13.40;95.90
3416;DHT22;1721;51.238;9.562;2023-02-22T16:32:47;12.90;96.50
3416;DHT22;1721;51.238;9.562;2023-02-22T16:35:14;12.80;96.60
3416;DHT22;1721;51.238;9.562;2023-02-22T16:37:49;12.80;96.70
3416;DHT22;1721;51.238;9.562;2023-02-22T16:40:24;12.70;96.90
3416;DHT22;1721;51.238;9.562;2023-02-22T16:42:50;12.50;97.30
3416;DHT22;1721;51.238;9.562;2023-02-22T16:45:20;12.50;97.20
3416;DHT22;1721;51.238;9.562;2023-02-22T16:47:47;12.40;97.40
3416;DHT22;1721;51.238;9.562;2023-02-22T16:50:14;12.30;97.30
3416;DHT22;1721;51.238;9.562;2023-02-22T16:52:41;12.30;97.40
3416;DHT22;1721;51.238;9.562;2023-02-22T16:55:12;12.20;97.60
3416;DHT22;1721;51.238;9.562;2023-02-22T16:57:40;12.00;97.70
3416;DHT22;1721;51.238;9.562;2023-02-22T17:00:12;12.00;97.80
3416;DHT22;1721;51.238;9.562;2023-02-22T17:02:39;11.90;97.80
3416;DHT22;1721;51.238;9.562;2023-02-22T17:05:05;11.90;97.80
3416;DHT22;1721;51.238;9.562;2023-02-22T17:07:32;11.80;97.70
3416;DHT22;1721;51.238;9.562;2023-02-22T17:09:58;11.80;97.70
3416;DHT22;1721;51.238;9.562;2023-02-22T17:12:26;11.70;97.80
3416;DHT22;1721;51.238;9.562;2023-02-22T17:14:52;11.60;97.80
3416;DHT22;1721;51.238;9.562;2023-02-22T17:17:17;11.50;97.90
3416;DHT22;1721;51.238;9.562;2023-02-22T17:19:43;11.40;97.90
3416;DHT22;1721;51.238;9.562;2023-02-22T17:22:19;11.50;98.00
3416;DHT22;1721;51.238;9.562;2023-02-22T17:24:45;11.50;97.90
3416;DHT22;1721;51.238;9.562;2023-02-22T17:27:10;11.50;97.80
3416;DHT22;1721;51.238;9.562;2023-02-22T17:29:36;11.50;97.80
3416;DHT22;1721;51.238;9.562;2023-02-22T17:32:02;11.50;97.80
3416;DHT22;1721;51.238;9.562;2023-02-22T17:34:28;11.40;97.80
3416;DHT22;1721;51.238;9.562;2023-02-22T17:36:54;11.40;97.80
3416;DHT22;1721;51.238;9.562;2023-02-22T17:39:19;11.40;98.00
3416;DHT22;1721;51.238;9.562;2023-02-22T17:41:45;11.40;98.10
3416;DHT22;1721;51.238;9.562;2023-02-22T17:44:11;11.30;98.30
3416;DHT22;1721;51.238;9.562;2023-02-22T17:46:37;11.30;98.30
3416;DHT22;1721;51.238;9.562;2023-02-22T17:49:05;11.30;98.30
3416;DHT22;1721;51.238;9.562;2023-02-22T17:51:31;11.40;98.30
3416;DHT22;1721;51.238;9.562;2023-02-22T17:53:56;11.40;98.30
3416;DHT22;1721;51.238;9.562;2023-02-22T17:56:22;11.40;98.30
3416;DHT22;1721;51.238;9.562;2023-02-22T17:58:49;11.40;98.40
3416;DHT22;1721;51.238;9.562;2023-02-22T18:01:28;11.40;98.40
3416;DHT22;1721;51.238;9.562;2023-02-22T18:03:57;11.50;98.30
3416;DHT22;1721;51.238;9.562;2023-02-22T18:06:25;11.50;98.10
3416;DHT22;1721;51.238;9.562;2023-02-22T18:08:53;11.60;98.00
3416;DHT22;1721;51.238;9.562;2023-02-22T18:11:20;11.60;98.20
3416;DHT22;1721;51.238;9.562;2023-02-22T18:13:49;11.50;97.90
3416;DHT22;1721;51.238;9.562;2023-02-22T18:16:14;11.50;97.80
3416;DHT22;1721;51.238;9.562;2023-02-22T18:18:40;11.50;97.90
3416;DHT22;1721;51.238;9.562;2023-02-22T18:21:06;11.50;97.90
3416;DHT22;1721;51.238;9.562;2023-02-22T18:23:32;11.40;97.90
3416;DHT22;1721;51.238;9.562;2023-02-22T18:25:59;11.40;97.90
3416;DHT22;1721;51.238;9.562;2023-02-22T18:28:25;11.40;97.80
3416;DHT22;1721;51.238;9.562;2023-02-22T18:30:51;11.40;97.80
3416;DHT22;1721;51.238;9.562;2023-02-22T18:33:17;11.30;98.20
3416;DHT22;1721;51.238;9.562;2023-02-22T18:35:46;11.30;97.90
3416;DHT22;1721;51.238;9.562;2023-02-22T18:38:14;11.30;97.90
3416;DHT22;1721;51.238;9.562;2023-02-22T18:41:09;11.30;98.00
3416;DHT22;1721;51.238;9.562;2023-02-22T18:43:34;11.20;98.20
3416;DHT22;1721;51.238;9.562;2023-02-22T18:46:08;11.10;98.30
3416;DHT22;1721;51.238;9.562;2023-02-22T18:48:34;11.10;98.30
3416;DHT22;1721;51.238;9.562;2023-02-22T18:51:01;11.10;98.30
3416;DHT22;1721;51.238;9.562;2023-02-22T18:53:28;11.20;98.60